createdAt,value
2018-11-14T00:00:42.663Z,2.30
2018-11-14T00:03:12.241Z,4.80
2018-11-14T00:05:41.860Z,8.33
2018-11-14T00:08:12.097Z,2.23
2018-11-14T00:10:42.319Z,3.37
2018-11-14T00:13:11.908Z,2.47
2018-11-14T00:15:41.750Z,4.80
2018-11-14T00:18:11.379Z,3.83
2018-11-14T00:20:41.040Z,3.30
2018-11-14T00:23:10.645Z,3.60
2018-11-14T00:25:40.168Z,2.13
2018-11-14T00:28:09.756Z,10.20
2018-11-14T00:30:39.238Z,4.33
2018-11-14T00:33:08.792Z,3.40
2018-11-14T00:35:38.324Z,4.77
2018-11-14T00:38:08.033Z,2.17
2018-11-14T00:40:37.893Z,2.63
2018-11-14T00:43:07.612Z,2.50
2018-11-14T00:45:37.213Z,6.00
2018-11-14T00:48:07.096Z,10.90
2018-11-14T00:50:36.660Z,6.63
2018-11-14T00:53:06.349Z,3.00
2018-11-14T00:55:35.887Z,3.13
2018-11-14T00:58:05.796Z,4.93
2018-11-14T01:00:35.478Z,6.67
2018-11-14T01:03:05.085Z,12.13
2018-11-14T01:05:34.617Z,3.53
2018-11-14T01:08:04.496Z,5.77
2018-11-14T01:10:34.119Z,9.10
2018-11-14T01:13:03.852Z,2.97
2018-11-14T01:15:33.542Z,7.03
2018-11-14T01:18:03.605Z,3.53
2018-11-14T01:20:33.262Z,3.10
2018-11-14T01:23:02.876Z,5.33
2018-11-14T01:25:32.565Z,6.50
2018-11-14T01:28:02.365Z,2.40
2018-11-14T01:30:32.899Z,9.40
2018-11-14T01:33:02.848Z,4.90
2018-11-14T01:35:32.409Z,6.87
2018-11-14T01:38:02.134Z,3.00
2018-11-14T01:40:31.763Z,10.37
2018-11-14T01:43:01.446Z,6.10
2018-11-14T01:45:31.076Z,9.43
2018-11-14T01:48:00.848Z,3.30
2018-11-14T01:50:31.331Z,8.60
2018-11-14T01:53:00.882Z,5.60
2018-11-14T01:55:30.534Z,3.70
2018-11-14T01:58:00.605Z,6.23
2018-11-14T02:00:30.261Z,8.70
2018-11-14T02:03:00.006Z,7.10
2018-11-14T02:05:29.817Z,16.10
2018-11-14T02:07:59.603Z,3.53
2018-11-14T02:10:29.148Z,8.20
2018-11-14T02:12:58.801Z,2.40
2018-11-14T02:15:28.633Z,5.33
2018-11-14T02:17:58.240Z,2.67
2018-11-14T02:20:27.822Z,3.27
2018-11-14T02:22:57.448Z,5.10
2018-11-14T02:25:27.061Z,8.33
2018-11-14T02:27:56.768Z,8.57
2018-11-14T02:30:26.378Z,3.80
2018-11-14T02:32:56.416Z,11.00
2018-11-14T02:35:26.051Z,2.27
2018-11-14T02:37:55.612Z,4.13
2018-11-14T02:40:25.246Z,5.40
2018-11-14T02:42:54.828Z,2.70
2018-11-14T02:45:24.319Z,11.17
2018-11-14T02:47:53.930Z,2.90
2018-11-14T02:50:23.428Z,8.97
2018-11-14T02:52:52.932Z,6.13
2018-11-14T02:55:22.584Z,6.30
2018-11-14T02:57:52.842Z,9.60
2018-11-14T03:00:22.855Z,7.07
2018-11-14T03:02:52.598Z,4.57
2018-11-14T03:05:22.283Z,4.43
2018-11-14T03:07:51.926Z,7.50
2018-11-14T03:10:22.172Z,2.83
2018-11-14T03:12:52.372Z,5.30
2018-11-14T03:15:23.132Z,3.27
2018-11-14T03:17:52.710Z,3.90
2018-11-14T03:20:22.858Z,5.73
2018-11-14T03:22:52.319Z,3.27
2018-11-14T03:25:22.565Z,3.23
2018-11-14T03:27:52.197Z,13.03
2018-11-14T03:30:21.884Z,13.67
2018-11-14T03:32:51.498Z,2.87
2018-11-14T03:35:21.106Z,3.20
2018-11-14T03:37:50.798Z,3.90
2018-11-14T03:40:20.426Z,8.63
2018-11-14T03:42:50.114Z,3.43
2018-11-14T03:45:19.738Z,8.40
2018-11-14T03:47:49.469Z,7.83
2018-11-14T03:50:19.046Z,3.53
2018-11-14T03:52:48.713Z,5.20
2018-11-14T03:55:18.353Z,7.30
2018-11-14T03:57:47.990Z,5.30
2018-11-14T04:00:17.771Z,3.43
2018-11-14T04:02:47.922Z,6.40
2018-11-14T04:05:17.774Z,2.57
2018-11-14T04:07:47.244Z,8.03
2018-11-14T04:10:16.828Z,4.10
2018-11-14T04:12:46.551Z,3.07
2018-11-14T04:15:16.629Z,3.43
2018-11-14T04:17:46.354Z,9.43
2018-11-14T04:20:17.257Z,14.93
2018-11-14T04:22:47.448Z,4.13
2018-11-14T04:25:18.701Z,2.77
2018-11-14T04:27:48.909Z,2.47
2018-11-14T04:30:22.682Z,4.47
2018-11-14T04:32:52.316Z,2.77
2018-11-14T04:35:22.367Z,2.37
2018-11-14T04:37:52.066Z,4.33
2018-11-14T04:40:23.245Z,4.63
2018-11-14T04:42:52.915Z,4.80
2018-11-14T04:45:23.648Z,4.30
2018-11-14T04:47:53.344Z,3.87
2018-11-14T04:50:25.643Z,2.93
2018-11-14T04:52:55.659Z,2.93
2018-11-14T04:55:26.174Z,3.30
2018-11-14T04:57:55.777Z,7.07
2018-11-14T05:00:26.313Z,7.30
2018-11-14T05:02:56.136Z,3.33
2018-11-14T05:05:25.860Z,2.70
2018-11-14T05:07:55.536Z,5.30
2018-11-14T05:10:26.616Z,4.83
2018-11-14T05:12:56.337Z,5.00
2018-11-14T05:15:26.517Z,2.87
2018-11-14T05:17:56.353Z,5.50
2018-11-14T05:20:25.941Z,7.63
2018-11-14T05:22:55.647Z,3.63
2018-11-14T05:25:25.194Z,3.20
2018-11-14T05:27:54.865Z,12.77
2018-11-14T05:30:24.797Z,7.90
2018-11-14T05:32:54.360Z,9.77
2018-11-14T05:35:24.374Z,6.07
2018-11-14T05:37:55.160Z,8.13
2018-11-14T05:40:24.639Z,2.70
2018-11-14T05:42:54.197Z,8.50
2018-11-14T05:45:25.682Z,11.60
2018-11-14T05:47:55.454Z,13.50
2018-11-14T05:50:25.331Z,19.43
2018-11-14T05:52:54.844Z,11.83
2018-11-14T05:55:24.701Z,10.40
2018-11-14T05:57:54.258Z,6.80
2018-11-14T06:00:27.751Z,5.40
2018-11-14T06:02:59.109Z,15.83
2018-11-14T06:05:28.921Z,18.93
2018-11-14T06:07:58.904Z,13.50
2018-11-14T06:10:28.521Z,15.07
2018-11-14T06:12:58.253Z,14.73
2018-11-14T06:15:27.999Z,15.77
2018-11-14T06:17:58.792Z,81.43
2018-11-14T06:20:28.406Z,87.33
2018-11-14T06:22:58.123Z,137.23
2018-11-14T06:25:32.652Z,82.73
2018-11-14T06:28:03.377Z,115.77
2018-11-14T06:30:33.713Z,72.90
2018-11-14T06:33:04.234Z,22.33
2018-11-14T06:35:33.738Z,40.00
2018-11-14T06:38:04.000Z,39.90
2018-11-14T06:40:33.789Z,79.27
2018-11-14T06:43:03.579Z,51.13
2018-11-14T06:45:33.704Z,42.70
2018-11-14T06:48:03.924Z,32.13
2018-11-14T06:50:33.619Z,30.93
2018-11-14T06:53:05.445Z,40.07
2018-11-14T06:55:34.920Z,23.50
2018-11-14T06:58:04.568Z,6.20
2018-11-14T07:00:35.230Z,7.73
2018-11-14T07:03:06.238Z,30.40
2018-11-14T07:05:36.109Z,6.23
2018-11-14T07:08:06.123Z,7.50
2018-11-14T07:10:36.854Z,24.37
2018-11-14T07:13:08.264Z,11.97
2018-11-14T07:15:38.325Z,14.30
2018-11-14T07:18:09.446Z,6.43
2018-11-14T07:20:40.594Z,4.87
2018-11-14T07:23:10.287Z,7.43
2018-11-14T07:25:40.040Z,2.70
2018-11-14T07:28:09.802Z,2.50
2018-11-14T07:30:39.420Z,2.10
2018-11-14T07:33:10.290Z,5.53
2018-11-14T07:35:39.910Z,4.23
2018-11-14T07:38:44.317Z,4.77
2018-11-14T07:41:19.249Z,4.30
2018-11-14T07:43:48.913Z,4.23
2018-11-14T07:46:18.671Z,8.00
2018-11-14T07:48:49.365Z,6.60
2018-11-14T07:51:18.886Z,5.83
2018-11-14T07:53:48.387Z,6.07
2018-11-14T07:56:18.088Z,11.47
2018-11-14T07:58:47.713Z,8.63
2018-11-14T08:01:17.606Z,34.67
2018-11-14T08:03:47.375Z,44.03
2018-11-14T08:06:17.027Z,15.33
2018-11-14T08:08:47.198Z,23.37
2018-11-14T08:11:16.892Z,42.37
2018-11-14T08:13:47.937Z,40.97
2018-11-14T08:16:17.680Z,12.67
2018-11-14T08:18:47.476Z,11.80
2018-11-14T08:21:16.925Z,11.93
2018-11-14T08:23:47.185Z,37.30
2018-11-14T08:26:16.633Z,90.20
2018-11-14T08:28:46.194Z,65.67
2018-11-14T08:31:15.914Z,85.80
2018-11-14T08:33:45.591Z,79.33
2018-11-14T08:36:15.308Z,75.83
2018-11-14T08:38:45.142Z,76.80
2018-11-14T12:29:52.474Z,44.43
2018-11-14T12:32:22.105Z,35.10
2018-11-14T12:34:51.660Z,45.93
2018-11-14T12:37:21.108Z,38.53
2018-11-14T12:39:50.950Z,40.20
2018-11-14T12:42:20.437Z,52.13
2018-11-14T12:44:50.194Z,36.23
2018-11-14T12:47:19.885Z,30.67
2018-11-14T12:49:49.565Z,34.10
2018-11-14T12:52:19.193Z,40.10
2018-11-14T12:54:48.896Z,36.37
2018-11-14T12:57:18.483Z,43.03
2018-11-14T12:59:48.922Z,42.77
2018-11-14T13:02:18.629Z,36.97
2018-11-14T13:04:48.157Z,38.77
2018-11-14T13:07:17.847Z,35.47
2018-11-14T13:09:47.680Z,42.10
2018-11-14T13:12:17.391Z,34.00
2018-11-14T13:14:46.985Z,40.10
2018-11-14T13:17:16.559Z,35.20
2018-11-14T13:19:46.098Z,43.27
2018-11-14T13:22:16.165Z,38.00
2018-11-14T13:24:45.828Z,29.50
2018-11-14T13:27:15.274Z,34.77
2018-11-14T13:29:44.953Z,43.50
2018-11-14T13:32:14.541Z,37.50
2018-11-14T13:34:44.156Z,38.93
2018-11-14T13:37:13.799Z,50.37
2018-11-14T13:39:43.456Z,50.10
2018-11-14T13:42:13.101Z,48.47
2018-11-14T13:44:42.792Z,39.87
2018-11-14T13:47:12.525Z,37.97
2018-11-14T13:49:42.348Z,40.23
2018-11-14T13:52:11.954Z,54.60
2018-11-14T13:54:41.531Z,45.30
2018-11-14T13:57:11.232Z,40.40
2018-11-14T13:59:40.802Z,52.73
2018-11-14T14:02:10.437Z,47.87
2018-11-14T14:04:40.208Z,51.30
2018-11-14T14:07:09.765Z,47.43
2018-11-14T14:09:39.261Z,50.20
2018-11-14T14:12:08.892Z,63.67
2018-11-14T14:14:38.873Z,49.90
2018-11-14T14:17:08.519Z,48.10
2018-11-14T14:19:38.228Z,51.23
2018-11-14T14:22:07.979Z,50.53
2018-11-14T14:24:37.617Z,44.93
2018-11-14T14:27:07.510Z,45.87
2018-11-14T14:29:37.242Z,41.47
2018-11-14T14:32:07.081Z,45.73
2018-11-14T14:34:36.678Z,51.73
2018-11-14T14:37:06.504Z,53.23
2018-11-14T14:39:36.102Z,40.83
2018-11-14T14:42:06.230Z,49.63
2018-11-14T14:44:36.658Z,43.23
2018-11-14T14:47:06.777Z,50.90
2018-11-14T14:49:36.681Z,51.70
2018-11-14T14:52:06.435Z,48.37
2018-11-14T14:54:36.093Z,44.83
2018-11-14T14:57:06.028Z,46.43
2018-11-14T14:59:35.737Z,55.10
2018-11-14T15:02:05.948Z,58.07
2018-11-14T15:04:35.673Z,48.63
2018-11-14T15:07:05.839Z,46.23
2018-11-14T15:09:35.497Z,48.37
2018-11-14T15:12:05.527Z,51.53
2018-11-14T15:14:35.216Z,51.87
2018-11-14T15:17:05.153Z,46.23
2018-11-14T15:19:34.859Z,46.83
2018-11-14T15:22:05.590Z,44.20
2018-11-14T15:24:35.028Z,40.10
2018-11-14T15:27:04.623Z,61.70
2018-11-14T15:29:34.148Z,47.90
2018-11-14T15:32:03.717Z,41.43
2018-11-14T15:34:33.321Z,40.80
2018-11-14T15:37:03.021Z,37.90
2018-11-14T15:39:32.745Z,40.00
2018-11-14T15:42:02.280Z,38.80
2018-11-14T15:44:31.887Z,39.30
2018-11-14T15:47:01.578Z,41.57
2018-11-14T15:49:31.254Z,42.70
2018-11-14T15:52:00.881Z,43.20
2018-11-14T15:54:30.509Z,34.47
2018-11-14T15:57:00.169Z,38.50
2018-11-14T15:59:29.910Z,44.57
2018-11-14T16:01:59.569Z,43.70
2018-11-14T16:04:29.229Z,48.67
2018-11-14T16:06:58.914Z,32.47
2018-11-14T16:09:28.644Z,44.67
2018-11-14T16:11:58.277Z,41.50
2018-11-14T16:14:28.063Z,36.13
2018-11-14T16:16:57.792Z,40.23
2018-11-14T16:19:27.499Z,36.80
2018-11-14T16:21:57.241Z,29.00
2018-11-14T16:24:26.923Z,29.63
2018-11-14T16:26:56.488Z,40.57
2018-11-14T16:29:26.105Z,28.20
2018-11-14T16:31:55.610Z,31.37
2018-11-14T16:34:25.220Z,35.13
2018-11-14T16:36:54.917Z,43.63
2018-11-14T16:39:24.662Z,37.20
2018-11-14T16:41:54.304Z,43.10
2018-11-14T16:44:23.948Z,24.53
2018-11-14T16:46:53.454Z,29.60
2018-11-14T16:49:23.937Z,28.40
2018-11-14T16:51:53.625Z,30.30
2018-11-14T16:54:23.232Z,33.03
2018-11-14T16:56:53.004Z,26.43
2018-11-14T16:59:22.586Z,30.00
2018-11-14T17:01:52.249Z,23.67
2018-11-14T17:04:22.281Z,27.53
2018-11-14T17:06:51.964Z,26.07
2018-11-14T17:09:21.672Z,27.43
2018-11-14T17:11:51.597Z,30.43
2018-11-14T17:14:21.223Z,25.57
2018-11-14T17:16:51.006Z,25.30
2018-11-14T17:19:20.659Z,38.20
2018-11-14T17:21:50.235Z,33.13
2018-11-14T17:24:19.934Z,26.47
2018-11-14T17:26:49.484Z,28.33
2018-11-14T17:29:19.117Z,35.90
2018-11-14T17:31:48.682Z,29.40
2018-11-14T17:34:18.372Z,32.67
2018-11-14T17:36:48.098Z,24.40
2018-11-14T17:39:17.801Z,18.83
2018-11-14T17:41:47.553Z,22.53
2018-11-14T17:44:17.095Z,26.13
2018-11-14T17:46:46.729Z,26.43
2018-11-14T17:49:16.334Z,26.97
2018-11-14T17:51:45.931Z,22.47
2018-11-14T17:54:15.502Z,36.67
2018-11-14T17:56:45.040Z,29.57
2018-11-14T17:59:14.695Z,32.70
2018-11-14T18:01:44.311Z,24.27
2018-11-14T18:04:13.865Z,28.40
2018-11-14T18:06:43.424Z,38.70
2018-11-14T18:09:14.968Z,36.43
2018-11-14T18:11:44.609Z,32.53
2018-11-14T18:14:14.390Z,28.63
2018-11-14T18:16:43.915Z,38.70
2018-11-14T18:19:13.585Z,22.87
2018-11-14T18:21:43.288Z,27.57
2018-11-14T18:24:12.882Z,22.77
2018-11-14T18:26:42.586Z,27.93
2018-11-14T18:29:12.934Z,27.00
2018-11-14T18:31:42.523Z,29.03
2018-11-14T18:34:12.050Z,27.73
2018-11-14T18:36:41.786Z,24.33
2018-11-14T18:39:13.736Z,21.50
2018-11-14T18:41:44.252Z,30.30
2018-11-14T18:44:13.943Z,24.73
2018-11-14T18:46:43.573Z,33.47
2018-11-14T18:49:13.177Z,26.10
2018-11-14T18:51:42.931Z,26.43
2018-11-14T18:54:12.538Z,26.10
2018-11-14T18:56:42.114Z,30.63
2018-11-14T18:59:11.749Z,32.33
2018-11-14T19:01:41.322Z,37.73
2018-11-14T19:04:11.030Z,30.67
2018-11-14T19:06:40.691Z,31.10
2018-11-14T19:09:10.758Z,32.67
2018-11-14T19:11:41.281Z,25.30
2018-11-14T19:14:11.135Z,39.50
2018-11-14T19:16:40.985Z,27.27
2018-11-14T19:19:10.922Z,34.83
2018-11-14T19:21:40.706Z,34.23
2018-11-14T19:24:10.496Z,32.43
2018-11-14T19:26:40.170Z,40.40
2018-11-14T19:29:09.766Z,34.07
2018-11-14T19:31:39.473Z,29.30
2018-11-14T19:34:09.094Z,36.20
2018-11-14T19:36:39.329Z,39.63
2018-11-14T19:39:12.555Z,34.20
2018-11-14T19:41:42.657Z,36.70
2018-11-14T19:44:12.757Z,33.60
2018-11-14T19:46:42.260Z,34.67
2018-11-14T19:49:11.999Z,39.37
2018-11-14T19:51:41.582Z,33.80
2018-11-14T19:54:11.289Z,32.13
2018-11-14T19:56:40.896Z,29.80
2018-11-14T19:59:10.921Z,39.53
2018-11-14T20:01:40.713Z,38.87
2018-11-14T20:04:10.563Z,41.80
2018-11-14T20:06:40.472Z,42.40
2018-11-14T20:09:11.478Z,47.93
2018-11-14T20:11:41.311Z,33.10
2018-11-14T20:14:11.041Z,39.27
2018-11-14T20:16:40.628Z,35.03
2018-11-14T20:19:11.192Z,37.00
2018-11-14T20:21:43.957Z,41.23
2018-11-14T20:24:15.358Z,38.53
2018-11-14T20:26:45.510Z,38.63
2018-11-14T20:29:15.209Z,37.07
2018-11-14T20:31:44.778Z,38.27
2018-11-14T20:34:14.398Z,39.30
2018-11-14T20:36:44.025Z,45.87
2018-11-14T20:39:14.000Z,38.93
2018-11-14T20:41:43.770Z,41.30
2018-11-14T20:44:13.514Z,32.27
2018-11-14T20:46:43.313Z,41.73
2018-11-14T20:49:12.967Z,37.10
2018-11-14T20:51:42.513Z,41.27
2018-11-14T20:54:12.402Z,39.83
2018-11-14T20:56:50.389Z,43.67
2018-11-14T20:59:20.125Z,43.03
2018-11-14T21:01:49.683Z,44.47
2018-11-14T21:04:19.532Z,37.97
2018-11-14T21:06:49.305Z,48.10
2018-11-14T21:09:18.987Z,41.40
2018-11-14T21:11:48.714Z,47.70
2018-11-14T21:14:18.495Z,39.90
2018-11-14T21:16:48.217Z,40.37
2018-11-14T21:19:18.417Z,37.97
2018-11-14T21:21:48.039Z,43.07
2018-11-14T21:24:18.012Z,48.03
2018-11-14T21:26:47.660Z,48.23
2018-11-14T21:29:17.374Z,40.33
2018-11-14T21:31:46.850Z,43.30
2018-11-14T21:34:16.488Z,49.23
2018-11-14T21:36:46.075Z,44.80
2018-11-14T21:39:15.811Z,43.63
2018-11-14T21:41:45.497Z,37.37
2018-11-14T21:44:15.073Z,42.53
2018-11-14T21:46:44.882Z,49.10
2018-11-14T21:49:19.450Z,50.20
2018-11-14T21:51:49.165Z,47.27
2018-11-14T21:54:18.733Z,40.53
2018-11-14T21:56:48.405Z,39.57
2018-11-14T21:59:18.208Z,52.27
2018-11-14T22:01:47.895Z,55.20
2018-11-14T22:04:17.589Z,56.20
2018-11-14T22:06:47.233Z,50.40
2018-11-14T22:09:17.518Z,47.93
2018-11-14T22:11:47.042Z,54.20
2018-11-14T22:14:17.098Z,52.93
2018-11-14T22:16:46.762Z,47.87
2018-11-14T22:19:16.275Z,49.33
2018-11-14T22:21:46.101Z,46.77
2018-11-14T22:24:17.056Z,52.60
2018-11-14T22:26:46.715Z,45.67
2018-11-14T22:29:16.543Z,57.70
2018-11-14T22:31:46.052Z,48.90
2018-11-14T22:34:15.746Z,48.63
2018-11-14T22:36:45.331Z,45.43
2018-11-14T22:39:14.948Z,51.70
2018-11-14T22:41:44.611Z,44.43
2018-11-14T22:44:14.173Z,53.10
2018-11-14T22:46:43.790Z,46.67
2018-11-14T22:49:13.340Z,49.83
2018-11-14T22:51:43.015Z,47.93
2018-11-14T22:54:12.609Z,46.50
2018-11-14T22:56:42.185Z,51.37
2018-11-14T22:59:11.848Z,43.10
2018-11-14T23:01:41.414Z,44.53
2018-11-14T23:04:11.070Z,50.97
2018-11-14T23:06:40.640Z,44.73
2018-11-14T23:09:12.582Z,42.03
2018-11-14T23:11:42.355Z,45.00
2018-11-14T23:14:12.079Z,41.50
2018-11-14T23:16:41.758Z,44.87
2018-11-14T23:19:12.018Z,39.40
2018-11-14T23:21:41.708Z,44.23
2018-11-14T23:24:11.407Z,47.03
2018-11-14T23:26:41.692Z,45.13
2018-11-14T23:29:11.926Z,40.00
2018-11-14T23:31:41.973Z,43.17
2018-11-14T23:34:11.543Z,47.03
2018-11-14T23:36:41.049Z,42.53
2018-11-14T23:39:12.985Z,46.43
2018-11-14T23:41:42.439Z,49.60
2018-11-14T23:44:12.006Z,40.93
2018-11-14T23:46:41.940Z,48.93
2018-11-14T23:49:11.705Z,45.83
2018-11-14T23:51:41.362Z,49.00
2018-11-14T23:54:11.097Z,42.07
2018-11-14T23:56:40.680Z,48.93
2018-11-14T23:59:10.184Z,48.10
